Terminal Aerodrome Forecast
Issued by NWS Cleveland, OH

Home | Current Version | Previous Version | Text Only | Print | Product List | Glossary On
Versions: 1 2 3 4 5 6 7 8 9 10 11 12 13 14 15 16 17
405
FTUS41 KCLE 300536
TAFERI
TAF
KERI 300536Z 3006/0106 05010G20KT P6SM OVC100
     FM300900 08010KT P6SM OVC035
     FM301800 07012G20KT P6SM BKN070
     FM010200 15010KT P6SM -SHRA OVC035=

USA.gov is the U.S. government's official web portal to all federal, state and local government web resources and services.